createdAt,value
2023-01-02T00:00:21.392Z,73.30
2023-01-02T00:02:56.105Z,69.83
2023-01-02T00:05:30.412Z,71.80
2023-01-02T00:08:04.424Z,71.03
2023-01-02T00:10:38.187Z,72.50
2023-01-02T00:13:12.164Z,72.10
2023-01-02T00:15:47.808Z,70.53
2023-01-02T00:18:22.218Z,71.73
2023-01-02T00:20:56.545Z,69.10
2023-01-02T00:23:30.801Z,73.73
2023-01-02T00:26:05.371Z,76.57
2023-01-02T00:28:40.677Z,71.70
2023-01-02T00:31:17.954Z,72.67
2023-01-02T00:33:51.794Z,72.60
2023-01-02T00:36:27.965Z,73.80
2023-01-02T00:39:02.081Z,74.13
2023-01-02T00:41:36.009Z,76.67
2023-01-02T00:44:09.931Z,73.87
2023-01-02T00:46:45.874Z,74.53
2023-01-02T00:49:19.743Z,74.27
2023-01-02T00:51:53.938Z,76.20
2023-01-02T00:54:28.106Z,72.53
2023-01-02T00:57:02.051Z,77.43
2023-01-02T00:59:35.888Z,76.73
2023-01-02T01:02:12.158Z,75.73
2023-01-02T01:04:46.256Z,75.50
2023-01-02T01:07:20.405Z,70.17
2023-01-02T01:09:54.676Z,68.40
2023-01-02T01:12:28.759Z,69.47
2023-01-02T01:15:02.601Z,67.93
2023-01-02T01:17:39.863Z,67.67
2023-01-02T01:20:14.709Z,68.00
2023-01-02T01:22:48.655Z,68.83
2023-01-02T01:25:22.578Z,72.20
2023-01-02T01:27:58.934Z,70.40
2023-01-02T01:30:33.171Z,69.10
2023-01-02T01:33:09.095Z,68.30
2023-01-02T01:35:44.163Z,71.00
2023-01-02T01:38:18.146Z,68.57
2023-01-02T01:40:52.203Z,66.57
2023-01-02T01:43:43.812Z,67.07
2023-01-02T01:46:27.232Z,65.23
2023-01-02T01:49:07.227Z,67.10
2023-01-02T01:51:43.825Z,66.83
2023-01-02T01:54:21.817Z,65.87
2023-01-02T01:57:01.351Z,67.57
2023-01-02T01:59:35.229Z,65.00
2023-01-02T02:02:10.140Z,69.13
2023-01-02T02:04:48.134Z,69.50
2023-01-02T02:07:22.417Z,66.57
2023-01-02T02:10:00.338Z,64.53
2023-01-02T02:12:34.963Z,67.63
2023-01-02T02:15:12.946Z,64.43
2023-01-02T02:17:54.251Z,66.53
2023-01-02T02:20:41.590Z,67.13
2023-01-02T02:23:55.251Z,64.40
2023-01-02T02:27:05.545Z,64.77
2023-01-02T02:30:12.983Z,62.20
2023-01-02T02:33:02.664Z,62.87
2023-01-02T02:35:50.724Z,60.93
2023-01-02T02:38:36.485Z,61.10
2023-01-02T02:41:18.006Z,60.33
2023-01-02T02:44:02.380Z,61.97
2023-01-02T02:46:47.474Z,61.70
2023-01-02T02:49:32.264Z,59.17
2023-01-02T02:52:11.784Z,59.97
2023-01-02T02:54:50.383Z,60.63
2023-01-02T02:57:27.195Z,61.33
2023-01-02T03:00:01.523Z,59.60
2023-01-02T03:02:37.447Z,59.40
2023-01-02T03:05:14.129Z,61.47
2023-01-02T03:07:57.272Z,61.30
2023-01-02T03:10:40.349Z,60.37
2023-01-02T03:13:22.293Z,61.27
2023-01-02T03:16:10.056Z,62.13
2023-01-02T03:18:52.234Z,61.20
2023-01-02T03:21:34.020Z,62.50
2023-01-02T03:24:12.919Z,63.63
2023-01-02T03:26:54.058Z,64.00
2023-01-02T03:29:34.504Z,62.13
2023-01-02T03:32:13.222Z,63.23
2023-01-02T03:34:51.833Z,64.50
2023-01-02T03:37:29.647Z,60.63
2023-01-02T03:40:07.883Z,62.17
2023-01-02T03:42:47.236Z,62.77
2023-01-02T03:45:26.501Z,64.00
2023-01-02T03:48:05.409Z,67.00
2023-01-02T03:50:48.926Z,64.60
2023-01-02T03:53:24.383Z,59.47
2023-01-02T03:56:08.321Z,60.70
2023-01-02T03:58:49.311Z,58.07
2023-01-02T04:01:36.564Z,58.73
2023-01-02T04:04:17.048Z,62.67
2023-01-02T04:06:57.823Z,60.40
2023-01-02T04:09:36.001Z,61.40
2023-01-02T04:12:15.160Z,62.67
2023-01-02T04:14:52.447Z,63.07
2023-01-02T04:17:29.321Z,61.00
2023-01-02T04:20:06.807Z,61.57
2023-01-02T04:22:47.390Z,62.30
2023-01-02T04:25:23.060Z,63.20
2023-01-02T04:28:05.185Z,64.43
2023-01-02T04:30:44.074Z,62.37
2023-01-02T04:33:19.042Z,61.70
2023-01-02T04:35:53.178Z,64.20
2023-01-02T04:38:28.942Z,63.53
2023-01-02T04:41:02.860Z,64.33
2023-01-02T04:43:36.793Z,62.70
2023-01-02T04:46:10.872Z,59.17
2023-01-02T04:48:44.899Z,60.73
2023-01-02T04:51:18.771Z,55.77
2023-01-02T04:53:55.788Z,57.17
2023-01-02T04:56:31.161Z,55.20
2023-01-02T04:59:07.278Z,55.10
2023-01-02T05:01:44.138Z,54.53
2023-01-02T05:04:24.600Z,55.23
2023-01-02T05:06:59.812Z,53.83
2023-01-02T05:09:39.118Z,53.77
2023-01-02T05:12:14.218Z,52.50
2023-01-02T05:14:50.504Z,50.17
2023-01-02T05:17:26.751Z,48.10
2023-01-02T05:20:02.821Z,47.00
2023-01-02T05:22:53.784Z,44.50
2023-01-02T05:25:33.175Z,47.13
2023-01-02T05:28:10.087Z,42.43
2023-01-02T05:30:45.571Z,48.40
2023-01-02T05:33:21.485Z,46.17
2023-01-02T05:35:57.650Z,44.67
2023-01-02T05:38:35.801Z,49.07
2023-01-02T05:41:14.237Z,47.03
2023-01-02T05:43:49.693Z,46.33
2023-01-02T05:46:26.570Z,46.93
2023-01-02T05:49:05.086Z,45.70
2023-01-02T05:51:41.447Z,46.53
2023-01-02T05:54:17.728Z,46.73
2023-01-02T05:56:56.088Z,45.90
2023-01-02T05:59:35.965Z,46.30
2023-01-02T06:02:12.484Z,47.47
2023-01-02T06:04:48.387Z,47.67
2023-01-02T06:07:24.918Z,47.10
2023-01-02T06:10:03.554Z,45.23
2023-01-02T06:12:41.304Z,45.70
2023-01-02T06:15:18.155Z,46.57
2023-01-02T06:17:54.808Z,46.37
2023-01-02T06:20:30.906Z,46.93
2023-01-02T06:23:07.019Z,46.40
2023-01-02T06:25:43.210Z,44.93
2023-01-02T06:28:21.523Z,46.33
2023-01-02T06:30:57.549Z,45.43
2023-01-02T06:33:34.703Z,46.53
2023-01-02T06:36:13.834Z,44.57
2023-01-02T06:38:50.288Z,44.07
2023-01-02T06:41:26.167Z,43.73
2023-01-02T06:44:05.448Z,42.53
2023-01-02T06:46:44.015Z,42.23
2023-01-02T06:49:19.941Z,41.77
2023-01-02T06:51:56.029Z,41.17
2023-01-02T06:54:31.400Z,42.40
2023-01-02T06:57:07.510Z,43.80
2023-01-02T06:59:45.269Z,43.73
2023-01-02T07:02:22.546Z,41.00
2023-01-02T07:05:00.375Z,41.17
2023-01-02T07:07:36.596Z,40.67
2023-01-02T07:10:13.450Z,40.43
2023-01-02T07:12:49.592Z,40.53
2023-01-02T07:15:31.494Z,40.40
2023-01-02T07:18:08.011Z,41.60
2023-01-02T07:20:43.955Z,41.30
2023-01-02T07:23:20.029Z,41.57
2023-01-02T07:25:59.890Z,41.60
2023-01-02T07:28:37.350Z,42.63
2023-01-02T07:31:18.170Z,42.63
2023-01-02T07:33:54.515Z,44.20
2023-01-02T07:36:33.193Z,43.63
2023-01-02T07:39:09.075Z,43.03
2023-01-02T07:41:45.570Z,41.43
2023-01-02T07:44:24.587Z,42.53
2023-01-02T07:47:02.837Z,43.07
2023-01-02T07:49:39.136Z,44.43
2023-01-02T07:52:17.789Z,44.03
2023-01-02T07:54:53.475Z,45.53
2023-01-02T07:57:29.465Z,44.83
2023-01-02T08:00:04.953Z,45.87
2023-01-02T08:02:51.789Z,44.57
2023-01-02T08:05:27.677Z,44.83
2023-01-02T08:08:03.764Z,45.20
2023-01-02T08:10:40.704Z,44.17
2023-01-02T08:13:17.558Z,46.57
2023-01-02T08:15:53.555Z,45.80
2023-01-02T08:18:32.228Z,45.30
2023-01-02T08:21:08.361Z,45.57
2023-01-02T08:23:44.569Z,45.37
2023-01-02T08:26:20.267Z,45.70
2023-01-02T08:29:01.138Z,45.57
2023-01-02T08:31:41.771Z,45.67
2023-01-02T08:34:21.769Z,46.87
2023-01-02T08:36:58.352Z,47.10
2023-01-02T08:39:34.626Z,46.13
2023-01-02T08:42:11.512Z,46.37
2023-01-02T08:44:47.421Z,46.27
2023-01-02T08:47:23.634Z,45.63
2023-01-02T08:50:01.360Z,47.27
2023-01-02T08:52:37.841Z,47.00
2023-01-02T08:55:15.246Z,47.37
2023-01-02T08:57:50.890Z,48.67
2023-01-02T09:00:27.259Z,49.00
2023-01-02T09:03:03.174Z,47.77
2023-01-02T09:05:43.103Z,48.83
2023-01-02T09:08:19.332Z,47.07
2023-01-02T09:10:56.266Z,45.70
2023-01-02T09:13:31.995Z,46.77
2023-01-02T09:16:07.536Z,46.57
2023-01-02T09:18:45.102Z,45.50
2023-01-02T09:21:23.792Z,45.50
2023-01-02T09:24:00.504Z,46.43
2023-01-02T09:26:36.551Z,46.27
2023-01-02T09:29:12.787Z,44.23
2023-01-02T09:31:48.769Z,43.87
2023-01-02T09:34:24.663Z,44.50
2023-01-02T09:37:04.198Z,45.23
2023-01-02T09:39:40.146Z,44.73
2023-01-02T09:42:20.546Z,47.10
2023-01-02T09:45:08.235Z,46.30
2023-01-02T09:47:46.349Z,45.07
2023-01-02T09:50:29.589Z,45.90
2023-01-02T09:53:09.085Z,47.93
2023-01-02T09:55:51.567Z,48.33
2023-01-02T09:58:45.965Z,47.30
2023-01-02T10:01:28.520Z,48.00
2023-01-02T10:04:12.475Z,46.30
2023-01-02T10:06:54.200Z,48.17
2023-01-02T10:09:41.419Z,48.53
2023-01-02T10:12:22.643Z,48.40
2023-01-02T10:15:02.608Z,49.17
2023-01-02T10:17:42.495Z,48.27
2023-01-02T10:20:29.449Z,49.70
2023-01-02T10:23:08.021Z,49.47
2023-01-02T10:25:53.142Z,47.80
2023-01-02T10:28:39.580Z,49.27
2023-01-02T10:31:19.693Z,48.97
2023-01-02T10:33:59.113Z,50.73
2023-01-02T10:36:41.610Z,50.70
2023-01-02T10:39:22.261Z,49.70
2023-01-02T10:42:03.356Z,51.03
2023-01-02T10:44:40.707Z,51.87
2023-01-02T10:47:24.886Z,52.00
2023-01-02T10:50:02.455Z,51.87
2023-01-02T10:52:40.547Z,51.87
2023-01-02T10:55:17.611Z,52.20
2023-01-02T10:57:56.514Z,53.03
2023-01-02T11:00:36.128Z,53.50
2023-01-02T11:03:21.185Z,51.33
2023-01-02T11:06:05.835Z,54.73
2023-01-02T11:09:03.646Z,53.87
2023-01-02T11:11:39.725Z,56.47
2023-01-02T11:14:21.731Z,55.20
2023-01-02T11:17:00.655Z,59.00
2023-01-02T11:19:44.252Z,53.90
2023-01-02T11:22:22.107Z,56.50
2023-01-02T11:25:04.088Z,58.70
2023-01-02T11:27:41.892Z,57.50
2023-01-02T11:30:34.337Z,58.33
2023-01-02T11:33:23.974Z,56.57
2023-01-02T11:36:01.338Z,55.93
2023-01-02T11:38:48.692Z,58.80
2023-01-02T11:41:54.447Z,58.07
2023-01-02T11:44:34.412Z,57.40
2023-01-02T11:47:15.667Z,60.20
2023-01-02T11:49:53.705Z,65.73
2023-01-02T11:52:36.048Z,59.40
2023-01-02T11:55:30.823Z,62.77
2023-01-02T11:58:15.898Z,60.50
2023-01-02T12:00:54.707Z,59.47
2023-01-02T12:03:36.629Z,61.30
2023-01-02T12:06:23.747Z,58.33
2023-01-02T12:09:11.129Z,57.47
2023-01-02T12:12:07.992Z,60.23
2023-01-02T12:14:59.807Z,59.53
2023-01-02T12:17:46.113Z,61.27
2023-01-02T12:20:43.141Z,57.03
2023-01-02T12:23:32.723Z,56.97
2023-01-02T12:26:14.495Z,59.93
2023-01-02T12:29:46.131Z,62.03
2023-01-02T12:32:54.237Z,59.37
2023-01-02T12:35:58.406Z,58.90
2023-01-02T12:38:45.760Z,60.47
2023-01-02T12:41:33.560Z,59.33
2023-01-02T12:44:47.763Z,58.83
2023-01-02T12:47:37.033Z,55.70
2023-01-02T12:50:48.568Z,55.30
2023-01-02T12:53:42.047Z,56.23
2023-01-02T12:56:26.083Z,57.57
2023-01-02T12:59:17.779Z,54.03
2023-01-02T13:02:01.789Z,57.13
2023-01-02T13:04:41.038Z,53.33
2023-01-02T13:07:25.182Z,54.97
2023-01-02T13:10:07.486Z,52.63
2023-01-02T13:12:46.653Z,53.03
2023-01-02T13:15:27.835Z,52.43
2023-01-02T13:18:16.557Z,54.03
2023-01-02T13:20:58.863Z,51.83
2023-01-02T13:23:45.621Z,53.47
2023-01-02T13:26:23.251Z,53.73
2023-01-02T13:29:10.290Z,54.47
2023-01-02T13:31:54.936Z,52.63
2023-01-02T13:34:34.877Z,50.93
2023-01-02T13:37:16.853Z,52.73
2023-01-02T13:39:58.341Z,53.33
2023-01-02T13:42:53.635Z,52.83
2023-01-02T13:45:33.489Z,51.53
2023-01-02T13:48:11.742Z,53.73
2023-01-02T13:50:54.786Z,52.60
2023-01-02T13:53:40.941Z,52.93
2023-01-02T13:56:22.216Z,54.93
2023-01-02T13:59:07.545Z,53.87
2023-01-02T14:02:22.981Z,55.00
2023-01-02T14:05:00.196Z,56.17
2023-01-02T14:07:53.479Z,56.53
2023-01-02T14:10:47.388Z,57.87
2023-01-02T14:13:38.880Z,57.90
2023-01-02T14:16:45.694Z,60.23
2023-01-02T14:19:28.210Z,59.73
2023-01-02T14:22:16.669Z,57.17
2023-01-02T14:24:55.349Z,58.83
2023-01-02T14:27:37.513Z,59.47
2023-01-02T14:30:23.572Z,60.90
2023-01-02T14:33:01.740Z,60.00
2023-01-02T14:35:41.289Z,61.20
2023-01-02T14:38:25.433Z,62.70
2023-01-02T14:41:23.035Z,62.40
2023-01-02T14:43:57.718Z,65.10
2023-01-02T14:46:39.896Z,62.17
2023-01-02T14:49:24.973Z,64.30
2023-01-02T14:52:11.706Z,63.93
2023-01-02T14:54:55.391Z,62.67
2023-01-02T14:57:38.455Z,62.90
2023-01-02T15:00:27.736Z,63.83
2023-01-02T15:03:23.231Z,62.57
2023-01-02T15:06:02.998Z,62.57
2023-01-02T15:08:46.651Z,63.67
2023-01-02T15:11:40.914Z,62.13
2023-01-02T15:14:23.845Z,62.57
2023-01-02T15:17:05.699Z,63.80
2023-01-02T15:19:44.961Z,65.20
2023-01-02T15:22:24.389Z,63.73
2023-01-02T15:25:02.246Z,64.27
2023-01-02T15:27:42.120Z,67.10
2023-01-02T15:30:31.639Z,66.47
2023-01-02T15:33:08.635Z,64.73
2023-01-02T15:35:48.843Z,65.20
2023-01-02T15:38:27.781Z,67.43
2023-01-02T15:41:04.364Z,64.53
2023-01-02T15:43:59.440Z,67.70
2023-01-02T15:46:37.651Z,66.00
2023-01-02T15:49:15.539Z,68.97
2023-01-02T15:51:54.429Z,70.00
2023-01-02T15:54:31.849Z,69.13
2023-01-02T15:57:19.129Z,71.27
2023-01-02T15:59:58.732Z,72.43
2023-01-02T16:02:48.202Z,72.07
2023-01-02T16:05:26.125Z,72.43
2023-01-02T16:08:05.690Z,73.97
2023-01-02T16:10:47.556Z,72.60
2023-01-02T16:13:45.232Z,73.37
2023-01-02T16:16:21.913Z,72.20
2023-01-02T16:19:04.397Z,71.33
2023-01-02T16:21:44.801Z,73.47
2023-01-02T16:24:27.948Z,73.57
2023-01-02T16:27:06.554Z,75.40
2023-01-02T16:29:48.515Z,72.90
2023-01-02T16:32:33.358Z,74.23
2023-01-02T16:35:22.943Z,75.23
2023-01-02T16:38:03.582Z,75.63
2023-01-02T16:41:01.414Z,77.63
2023-01-02T16:43:43.347Z,77.10
2023-01-02T16:46:20.538Z,75.70
2023-01-02T16:49:01.205Z,77.03
2023-01-02T16:51:39.542Z,79.93
2023-01-02T16:54:17.008Z,76.93
2023-01-02T16:56:54.239Z,78.03
2023-01-02T16:59:28.738Z,78.67
2023-01-02T17:02:02.971Z,80.07
2023-01-02T17:04:37.127Z,80.00
2023-01-02T17:07:12.019Z,79.57
2023-01-02T17:09:48.424Z,79.93
2023-01-02T17:12:24.266Z,78.90
2023-01-02T17:14:58.456Z,82.93
2023-01-02T17:17:32.717Z,78.13
2023-01-02T17:20:06.939Z,81.47
2023-01-02T17:22:41.344Z,82.87
2023-01-02T17:25:19.755Z,83.47
2023-01-02T17:27:55.815Z,85.33
2023-01-02T17:30:29.847Z,83.67
2023-01-02T17:33:04.442Z,84.00
2023-01-02T17:35:40.385Z,81.97
2023-01-02T17:38:14.560Z,82.83
2023-01-02T17:40:49.025Z,84.07
2023-01-02T17:43:25.223Z,85.73
2023-01-02T17:45:59.082Z,85.53
2023-01-02T17:48:34.160Z,84.77
2023-01-02T17:51:08.233Z,85.83
2023-01-02T17:53:42.133Z,81.43
2023-01-02T17:56:21.401Z,86.20
2023-01-02T17:58:58.499Z,84.50
2023-01-02T18:01:32.500Z,82.80
2023-01-02T18:04:06.368Z,84.00
2023-01-02T18:06:40.331Z,82.53
2023-01-02T18:09:14.681Z,85.50
2023-01-02T18:11:49.552Z,86.23
2023-01-02T18:14:29.712Z,84.67
2023-01-02T18:17:06.439Z,86.43
2023-01-02T18:19:40.380Z,85.87
2023-01-02T18:22:18.934Z,83.23
2023-01-02T18:24:58.545Z,85.93
2023-01-02T18:27:34.422Z,86.07
2023-01-02T18:30:17.297Z,87.63
2023-01-02T18:32:52.196Z,86.90
2023-01-02T18:38:28.039Z,85.97
2023-01-02T18:41:02.337Z,84.73
2023-01-02T18:43:39.113Z,85.33
2023-01-02T18:46:20.662Z,87.40
2023-01-02T18:48:56.122Z,85.90
2023-01-02T18:51:30.154Z,86.30
2023-01-02T18:54:04.147Z,84.33
2023-01-02T18:56:39.420Z,86.13
2023-01-02T18:59:23.697Z,85.00
2023-01-02T19:02:04.094Z,86.70
2023-01-02T19:04:41.382Z,84.00
2023-01-02T19:07:26.853Z,86.40
2023-01-02T19:10:13.946Z,85.30
2023-01-02T19:13:08.588Z,86.50
2023-01-02T19:15:47.603Z,86.00
2023-01-02T19:18:34.374Z,86.73
2023-01-02T19:21:22.092Z,85.27
2023-01-02T19:24:01.776Z,83.67
2023-01-02T19:26:39.777Z,83.73
2023-01-02T19:29:21.911Z,86.10
2023-01-02T19:32:00.215Z,83.40
2023-01-02T19:34:45.226Z,85.57
2023-01-02T19:37:35.139Z,84.93
2023-01-02T19:40:14.738Z,87.00
2023-01-02T19:42:53.085Z,86.87
2023-01-02T19:45:28.567Z,87.43
2023-01-02T19:48:02.778Z,84.90
2023-01-02T19:50:40.031Z,85.10
2023-01-02T19:53:14.214Z,85.17
2023-01-02T19:55:47.986Z,84.27
2023-01-02T19:58:22.872Z,86.87
2023-01-02T20:00:57.121Z,85.73
2023-01-02T20:03:31.251Z,89.07
2023-01-02T20:06:07.324Z,84.53
2023-01-02T20:08:43.644Z,84.77
2023-01-02T20:11:30.442Z,85.37
2023-01-02T20:14:04.187Z,83.93
2023-01-02T20:16:37.961Z,84.60
2023-01-02T20:19:11.647Z,86.53
2023-01-02T20:21:47.269Z,84.40
2023-01-02T20:24:20.929Z,84.90
2023-01-02T20:26:54.945Z,84.27
2023-01-02T20:29:29.161Z,84.07
2023-01-02T20:32:05.723Z,83.23
2023-01-02T20:34:39.729Z,85.07
2023-01-02T20:37:22.572Z,88.40
2023-01-02T20:39:57.668Z,88.60
2023-01-02T20:42:31.726Z,83.93
2023-01-02T20:45:05.483Z,86.70
2023-01-02T20:47:40.111Z,85.60
2023-01-02T20:50:14.617Z,85.23
2023-01-02T20:52:56.422Z,85.13
2023-01-02T20:55:31.135Z,85.67
2023-01-02T20:58:05.637Z,84.37
2023-01-02T21:00:39.810Z,85.83
2023-01-02T21:03:13.940Z,85.50
2023-01-02T21:05:48.061Z,85.27
2023-01-02T21:08:24.128Z,85.13
2023-01-02T21:10:58.126Z,84.43
2023-01-02T21:13:32.166Z,86.13
2023-01-02T21:16:06.722Z,84.77
2023-01-02T21:18:42.130Z,84.10
2023-01-02T21:21:19.428Z,86.43
2023-01-02T21:23:55.686Z,84.00
2023-01-02T21:26:29.527Z,84.57
2023-01-02T21:29:04.371Z,87.47
2023-01-02T21:31:38.779Z,86.87
2023-01-02T21:34:15.036Z,85.73
2023-01-02T21:36:48.760Z,86.47
2023-01-02T21:39:24.678Z,86.63
2023-01-02T21:42:14.670Z,88.07
2023-01-02T21:44:49.690Z,87.40
2023-01-02T21:47:23.583Z,82.40
2023-01-02T21:49:57.738Z,83.40
2023-01-02T21:52:31.624Z,83.63
2023-01-02T21:55:07.896Z,82.57
2023-01-02T21:58:13.245Z,81.67
2023-01-02T22:00:36.007Z,83.90
2023-01-02T22:03:10.528Z,82.20
2023-01-02T22:05:44.914Z,81.70
2023-01-02T22:08:18.909Z,78.23
2023-01-02T22:11:14.694Z,78.93
2023-01-02T22:13:52.399Z,77.63
2023-01-02T22:16:26.408Z,78.03
2023-01-02T22:19:00.254Z,80.57
2023-01-02T22:21:35.275Z,76.33
2023-01-02T22:24:09.249Z,77.10
2023-01-02T22:26:46.217Z,77.43
2023-01-02T22:29:24.110Z,75.60
2023-01-02T22:32:01.466Z,74.20
2023-01-02T22:34:37.595Z,74.30
2023-01-02T22:37:13.666Z,75.87
2023-01-02T22:39:49.480Z,78.70
2023-01-02T22:45:41.488Z,78.57
2023-01-02T22:48:22.794Z,74.87
2023-01-02T22:51:00.520Z,75.23
2023-01-02T22:53:35.891Z,75.30
2023-01-02T22:56:17.230Z,73.90
2023-01-02T22:58:53.799Z,74.63
2023-01-02T23:01:33.647Z,74.73
2023-01-02T23:04:07.847Z,77.97
2023-01-02T23:07:13.696Z,78.03
2023-01-02T23:09:35.593Z,74.10
2023-01-02T23:12:09.565Z,73.80
2023-01-02T23:14:45.527Z,74.93
2023-01-02T23:17:35.678Z,74.67
2023-01-02T23:20:10.331Z,75.00
2023-01-02T23:22:44.375Z,74.07
2023-01-02T23:25:18.262Z,74.33
2023-01-02T23:27:52.734Z,75.63
2023-01-02T23:30:28.942Z,77.43
2023-01-02T23:33:02.759Z,72.70
2023-01-02T23:35:36.743Z,74.33
2023-01-02T23:38:10.710Z,74.73
2023-01-02T23:40:44.823Z,74.97
2023-01-02T23:43:19.070Z,74.97
2023-01-02T23:45:55.263Z,73.90
2023-01-02T23:48:29.191Z,71.83
2023-01-02T23:51:03.983Z,74.67
2023-01-02T23:53:38.130Z,73.43
2023-01-02T23:56:20.924Z,74.17
2023-01-02T23:58:56.215Z,75.70
